Aviation Digital Data Service (ADDS)

Output produced by METARs form (1717 UTC 23 October 2017)
found at http://www.aviationweather.gov/adds/metars/
 
METAR text: KMGW 231653Z 11010KT 7SM -RA FEW065 SCT080 OVC100 19/14 A2994 RMK AO2 RAB37 SLP134 P0001 T01940144
Conditions at: KMGW (MORGANTOWN , WV, US) observed 1653 UTC 23 October 2017
Temperature: 19.4°C (67°F)
Dewpoint: 14.4°C (58°F) [RH = 73%]
Pressure (altimeter): 29.94 inches Hg (1014.0 mb)
[Sea-level pressure: 1013.4 mb]
Winds: from the ESE (110 degrees) at 12 MPH (10 knots; 5.2 m/s)
Visibility: 7 miles (11 km)
Ceiling: 10000 feet AGL
Clouds: few clouds at 6500 feet AGL
scattered clouds at 8000 feet AGL
overcast cloud deck at 10000 feet AGL
Weather: -RA  (light rain)

METAR text: KMGW 231553Z 13007KT 10SM FEW036 SCT075 OVC110 21/15 A2999 RMK AO2 RAB12E52 SLP150 P0001 T02060150
Conditions at: KMGW (MORGANTOWN , WV, US) observed 1553 UTC 23 October 2017
Temperature: 20.6°C (69°F)
Dewpoint: 15.0°C (59°F) [RH = 70%]
Pressure (altimeter): 29.99 inches Hg (1015.7 mb)
[Sea-level pressure: 1015.0 mb]
Winds: from the SE (130 degrees) at 8 MPH (7 knots; 3.6 m/s)
Visibility: 10 or more miles (16+ km)
Ceiling: 11000 feet AGL
Clouds: few clouds at 3600 feet AGL
scattered clouds at 7500 feet AGL
overcast cloud deck at 11000 feet AGL
Weather: no significant weather observed at this time

METAR text: KMGW 231453Z 13005KT 10SM BKN090 21/13 A3003 RMK AO2 SLP163 60000 T02060133 58017
Conditions at: KMGW (MORGANTOWN , WV, US) observed 1453 UTC 23 October 2017
Temperature: 20.6°C (69°F)
Dewpoint: 13.3°C (56°F) [RH = 63%]
Pressure (altimeter): 30.03 inches Hg (1017.0 mb)
[Sea-level pressure: 1016.3 mb]
Winds: from the SE (130 degrees) at 6 MPH (5 knots; 2.6 m/s)
Visibility: 10 or more miles (16+ km)
Ceiling: 9000 feet AGL
Clouds: broken clouds at 9000 feet AGL
Weather: no significant weather observed at this time

METAR text: KMGW 231353Z 14007KT 10SM CLR 19/13 A3005 RMK AO2 SLP168 T01890128
Conditions at: KMGW (MORGANTOWN , WV, US) observed 1353 UTC 23 October 2017
Temperature: 18.9°C (66°F)
Dewpoint: 12.8°C (55°F) [RH = 68%]
Pressure (altimeter): 30.05 inches Hg (1017.7 mb)
[Sea-level pressure: 1016.8 mb]
Winds: from the SE (140 degrees) at 8 MPH (7 knots; 3.6 m/s)
Visibility: 10 or more miles (16+ km)
Ceiling: at least 12,000 feet AGL
Clouds: sky clear below 12,000 feet AGL
Weather: no significant weather observed at this time

METAR text: KMGW 231253Z 11005KT 10SM SCT090 BKN120 17/12 A3008 RMK AO2 RAE16 SLP178 SHRA NE-SE P0000 T01720117
Conditions at: KMGW (MORGANTOWN , WV, US) observed 1253 UTC 23 October 2017
Temperature: 17.2°C (63°F)
Dewpoint: 11.7°C (53°F) [RH = 70%]
Pressure (altimeter): 30.08 inches Hg (1018.7 mb)
[Sea-level pressure: 1017.8 mb]
Winds: from the ESE (110 degrees) at 6 MPH (5 knots; 2.6 m/s)
Visibility: 10 or more miles (16+ km)
Ceiling: 12000 feet AGL
Clouds: scattered clouds at 9000 feet AGL
broken clouds at 12000 feet AGL
Weather: no significant weather observed at this time

METAR text: KMGW 231153Z 11006KT 5SM -RA FEW049 SCT070 OVC095 17/11 A3008 RMK AO2 RAB14 SLP181 P0002 60002 70002 T01670111 10167 20150 58015
Conditions at: KMGW (MORGANTOWN , WV, US) observed 1153 UTC 23 October 2017
Temperature: 16.7°C (62°F)
Dewpoint: 11.1°C (52°F) [RH = 70%]
Pressure (altimeter): 30.08 inches Hg (1018.7 mb)
[Sea-level pressure: 1018.1 mb]
Winds: from the ESE (110 degrees) at 7 MPH (6 knots; 3.1 m/s)
Visibility: 5 miles (8 km)
Ceiling: 9500 feet AGL
Clouds: few clouds at 4900 feet AGL
scattered clouds at 7000 feet AGL
overcast cloud deck at 9500 feet AGL
Weather: -RA  (light rain)

METAR text: KMGW 231053Z AUTO 11004KT 10SM CLR 16/09 A3011 RMK AO2 SLP189 T01610094
Conditions at: KMGW (MORGANTOWN , WV, US) observed 1053 UTC 23 October 2017
Temperature: 16.1°C (61°F)
Dewpoint: 9.4°C (49°F) [RH = 64%]
Pressure (altimeter): 30.11 inches Hg (1019.7 mb)
[Sea-level pressure: 1018.9 mb]
Winds: from the ESE (110 degrees) at 5 MPH (4 knots; 2.1 m/s)
Visibility: 10 or more miles (16+ km)
Ceiling: at least 12,000 feet AGL
Clouds: sky clear below 12,000 feet AGL
Weather: automated observation with no human augmentation;
there may or may not be significant weather present at this time

METAR text: KMGW 230953Z AUTO 15003KT 10SM CLR 16/09 A3012 RMK AO2 SLP191 T01610094
Conditions at: KMGW (MORGANTOWN , WV, US) observed 0953 UTC 23 October 2017
Temperature: 16.1°C (61°F)
Dewpoint: 9.4°C (49°F) [RH = 64%]
Pressure (altimeter): 30.12 inches Hg (1020.1 mb)
[Sea-level pressure: 1019.1 mb]
Winds: from the SSE (150 degrees) at 3 MPH (3 knots; 1.6 m/s)
Visibility: 10 or more miles (16+ km)
Ceiling: at least 12,000 feet AGL
Clouds: sky clear below 12,000 feet AGL
Weather: automated observation with no human augmentation;
there may or may not be significant weather present at this time

METAR text: KMGW 230853Z AUTO 11006KT 10SM CLR 16/09 A3013 RMK AO2 SLP195 T01610089 56017
Conditions at: KMGW (MORGANTOWN , WV, US) observed 0853 UTC 23 October 2017
Temperature: 16.1°C (61°F)
Dewpoint: 8.9°C (48°F) [RH = 62%]
Pressure (altimeter): 30.13 inches Hg (1020.4 mb)
[Sea-level pressure: 1019.5 mb]
Winds: from the ESE (110 degrees) at 7 MPH (6 knots; 3.1 m/s)
Visibility: 10 or more miles (16+ km)
Ceiling: at least 12,000 feet AGL
Clouds: sky clear below 12,000 feet AGL
Weather: automated observation with no human augmentation;
there may or may not be significant weather present at this time

METAR text: KMGW 230753Z AUTO 11006KT 10SM CLR 16/09 A3014 RMK AO2 SLP200 T01610089
Conditions at: KMGW (MORGANTOWN , WV, US) observed 0753 UTC 23 October 2017
Temperature: 16.1°C (61°F)
Dewpoint: 8.9°C (48°F) [RH = 62%]
Pressure (altimeter): 30.14 inches Hg (1020.7 mb)
[Sea-level pressure: 1020.0 mb]
Winds: from the ESE (110 degrees) at 7 MPH (6 knots; 3.1 m/s)
Visibility: 10 or more miles (16+ km)
Ceiling: at least 12,000 feet AGL
Clouds: sky clear below 12,000 feet AGL
Weather: automated observation with no human augmentation;
there may or may not be significant weather present at this time

METAR text: KMGW 230653Z AUTO 16007KT 10SM CLR 16/09 A3016 RMK AO2 SLP206 T01610089
Conditions at: KMGW (MORGANTOWN , WV, US) observed 0653 UTC 23 October 2017
Temperature: 16.1°C (61°F)
Dewpoint: 8.9°C (48°F) [RH = 62%]
Pressure (altimeter): 30.16 inches Hg (1021.4 mb)
[Sea-level pressure: 1020.6 mb]
Winds: from the SSE (160 degrees) at 8 MPH (7 knots; 3.6 m/s)
Visibility: 10 or more miles (16+ km)
Ceiling: at least 12,000 feet AGL
Clouds: sky clear below 12,000 feet AGL
Weather: automated observation with no human augmentation;
there may or may not be significant weather present at this time

METAR text: KMGW 230553Z AUTO 10005KT 10SM CLR 16/08 A3018 RMK AO2 SLP213 T01610078 10206 20150 58010
Conditions at: KMGW (MORGANTOWN , WV, US) observed 0553 UTC 23 October 2017
Temperature: 16.1°C (61°F)
Dewpoint: 7.8°C (46°F) [RH = 58%]
Pressure (altimeter): 30.18 inches Hg (1022.1 mb)
[Sea-level pressure: 1021.3 mb]
Winds: from the E (100 degrees) at 6 MPH (5 knots; 2.6 m/s)
Visibility: 10 or more miles (16+ km)
Ceiling: at least 12,000 feet AGL
Clouds: sky clear below 12,000 feet AGL
Weather: automated observation with no human augmentation;
there may or may not be significant weather present at this time

METAR text: KMGW 230453Z AUTO 14006KT 10SM CLR 16/08 A3019 RMK AO2 SLP217 T01610083 402670094
Conditions at: KMGW (MORGANTOWN , WV, US) observed 0453 UTC 23 October 2017
Temperature: 16.1°C (61°F)
Dewpoint: 8.3°C (47°F) [RH = 60%]
Pressure (altimeter): 30.19 inches Hg (1022.4 mb)
[Sea-level pressure: 1021.7 mb]
Winds: from the SE (140 degrees) at 7 MPH (6 knots; 3.1 m/s)
Visibility: 10 or more miles (16+ km)
Ceiling: at least 12,000 feet AGL
Clouds: sky clear below 12,000 feet AGL
Weather: automated observation with no human augmentation;
there may or may not be significant weather present at this time

METAR text: KMGW 230353Z AUTO 14005KT 10SM CLR 17/08 A3021 RMK AO2 SLP222 T01670083
Conditions at: KMGW (MORGANTOWN , WV, US) observed 0353 UTC 23 October 2017
Temperature: 16.7°C (62°F)
Dewpoint: 8.3°C (47°F) [RH = 58%]
Pressure (altimeter): 30.21 inches Hg (1023.1 mb)
[Sea-level pressure: 1022.2 mb]
Winds: from the SE (140 degrees) at 6 MPH (5 knots; 2.6 m/s)
Visibility: 10 or more miles (16+ km)
Ceiling: at least 12,000 feet AGL
Clouds: sky clear below 12,000 feet AGL
Weather: automated observation with no human augmentation;
there may or may not be significant weather present at this time

METAR text: KMGW 230253Z 17005KT 10SM CLR 18/09 A3021 RMK AO2 SLP225 T01780094 50002
Conditions at: KMGW (MORGANTOWN , WV, US) observed 0253 UTC 23 October 2017
Temperature: 17.8°C (64°F)
Dewpoint: 9.4°C (49°F) [RH = 58%]
Pressure (altimeter): 30.21 inches Hg (1023.1 mb)
[Sea-level pressure: 1022.5 mb]
Winds: from the S (170 degrees) at 6 MPH (5 knots; 2.6 m/s)
Visibility: 10 or more miles (16+ km)
Ceiling: at least 12,000 feet AGL
Clouds: sky clear below 12,000 feet AGL
Weather: no significant weather observed at this time

METAR text: KMGW 230153Z 16006KT 10SM CLR 18/09 A3021 RMK AO2 SLP226 T01830089
Conditions at: KMGW (MORGANTOWN , WV, US) observed 0153 UTC 23 October 2017
Temperature: 18.3°C (65°F)
Dewpoint: 8.9°C (48°F) [RH = 54%]
Pressure (altimeter): 30.21 inches Hg (1023.1 mb)
[Sea-level pressure: 1022.6 mb]
Winds: from the SSE (160 degrees) at 7 MPH (6 knots; 3.1 m/s)
Visibility: 10 or more miles (16+ km)
Ceiling: at least 12,000 feet AGL
Clouds: sky clear below 12,000 feet AGL
Weather: no significant weather observed at this time

METAR text: KMGW 230053Z 15005KT 10SM CLR 20/08 A3021 RMK AO2 SLP225 T02000083
Conditions at: KMGW (MORGANTOWN , WV, US) observed 0053 UTC 23 October 2017
Temperature: 20.0°C (68°F)
Dewpoint: 8.3°C (47°F) [RH = 47%]
Pressure (altimeter): 30.21 inches Hg (1023.1 mb)
[Sea-level pressure: 1022.5 mb]
Winds: from the SSE (150 degrees) at 6 MPH (5 knots; 2.6 m/s)
Visibility: 10 or more miles (16+ km)
Ceiling: at least 12,000 feet AGL
Clouds: sky clear below 12,000 feet AGL
Weather: no significant weather observed at this time

METAR text: KMGW 222353Z 15006KT 10SM CLR 21/10 A3020 RMK AO2 SLP226 T02060100 10267 20206 53002
Conditions at: KMGW (MORGANTOWN , WV, US) observed 2353 UTC 22 October 2017
Temperature: 20.6°C (69°F)
Dewpoint: 10.0°C (50°F) [RH = 51%]
Pressure (altimeter): 30.20 inches Hg (1022.8 mb)
[Sea-level pressure: 1022.6 mb]
Winds: from the SSE (150 degrees) at 7 MPH (6 knots; 3.1 m/s)
Visibility: 10 or more miles (16+ km)
Ceiling: at least 12,000 feet AGL
Clouds: sky clear below 12,000 feet AGL
Weather: no significant weather observed at this time

METAR text: KMGW 222253Z 13008KT 10SM CLR 23/09 A3019 RMK AO2 SLP219 T02280094
Conditions at: KMGW (MORGANTOWN , WV, US) observed 2253 UTC 22 October 2017
Temperature: 22.8°C (73°F)
Dewpoint: 9.4°C (49°F) [RH = 42%]
Pressure (altimeter): 30.19 inches Hg (1022.4 mb)
[Sea-level pressure: 1021.9 mb]
Winds: from the SE (130 degrees) at 9 MPH (8 knots; 4.2 m/s)
Visibility: 10 or more miles (16+ km)
Ceiling: at least 12,000 feet AGL
Clouds: sky clear below 12,000 feet AGL
Weather: no significant weather observed at this time

METAR text: KMGW 222153Z 13006KT 10SM CLR 24/09 A3019 RMK AO2 SLP219 T02390089
Conditions at: KMGW (MORGANTOWN , WV, US) observed 2153 UTC 22 October 2017
Temperature: 23.9°C (75°F)
Dewpoint: 8.9°C (48°F) [RH = 38%]
Pressure (altimeter): 30.19 inches Hg (1022.4 mb)
[Sea-level pressure: 1021.9 mb]
Winds: from the SE (130 degrees) at 7 MPH (6 knots; 3.1 m/s)
Visibility: 10 or more miles (16+ km)
Ceiling: at least 12,000 feet AGL
Clouds: sky clear below 12,000 feet AGL
Weather: no significant weather observed at this time

METAR text: KMGW 222053Z 16005KT 10SM CLR 26/08 A3020 RMK AO2 SLP220 T02610078 56019
Conditions at: KMGW (MORGANTOWN , WV, US) observed 2053 UTC 22 October 2017
Temperature: 26.1°C (79°F)
Dewpoint: 7.8°C (46°F) [RH = 31%]
Pressure (altimeter): 30.20 inches Hg (1022.8 mb)
[Sea-level pressure: 1022.0 mb]
Winds: from the SSE (160 degrees) at 6 MPH (5 knots; 2.6 m/s)
Visibility: 10 or more miles (16+ km)
Ceiling: at least 12,000 feet AGL
Clouds: sky clear below 12,000 feet AGL
Weather: no significant weather observed at this time

METAR text: KMGW 221953Z 16005KT 10SM CLR 26/09 A3021 RMK AO2 SLP224 T02560089
Conditions at: KMGW (MORGANTOWN , WV, US) observed 1953 UTC 22 October 2017
Temperature: 25.6°C (78°F)
Dewpoint: 8.9°C (48°F) [RH = 35%]
Pressure (altimeter): 30.21 inches Hg (1023.1 mb)
[Sea-level pressure: 1022.4 mb]
Winds: from the SSE (160 degrees) at 6 MPH (5 knots; 2.6 m/s)
Visibility: 10 or more miles (16+ km)
Ceiling: at least 12,000 feet AGL
Clouds: sky clear below 12,000 feet AGL
Weather: no significant weather observed at this time

METAR text: KMGW 221853Z 00000KT 10SM CLR 26/08 A3023 RMK AO2 SLP231 T02560078
Conditions at: KMGW (MORGANTOWN , WV, US) observed 1853 UTC 22 October 2017
Temperature: 25.6°C (78°F)
Dewpoint: 7.8°C (46°F) [RH = 32%]
Pressure (altimeter): 30.23 inches Hg (1023.8 mb)
[Sea-level pressure: 1023.1 mb]
Winds: calm
Visibility: 10 or more miles (16+ km)
Ceiling: at least 12,000 feet AGL
Clouds: sky clear below 12,000 feet AGL
Weather: no significant weather observed at this time

METAR text: KMGW 221753Z 24003KT 10SM CLR 25/07 A3025 RMK AO2 SLP239 T02500072 10256 20100 58022
Conditions at: KMGW (MORGANTOWN , WV, US) observed 1753 UTC 22 October 2017
Temperature: 25.0°C (77°F)
Dewpoint: 7.2°C (45°F) [RH = 32%]
Pressure (altimeter): 30.25 inches Hg (1024.5 mb)
[Sea-level pressure: 1023.9 mb]
Winds: from the WSW (240 degrees) at 3 MPH (3 knots; 1.6 m/s)
Visibility: 10 or more miles (16+ km)
Ceiling: at least 12,000 feet AGL
Clouds: sky clear below 12,000 feet AGL
Weather: no significant weather observed at this time